createdAt,value
2023-10-29T00:02:14.753Z,100578.72
2023-10-29T00:04:42.420Z,100577.88
2023-10-29T00:07:09.736Z,100587.78
2023-10-29T00:09:37.044Z,100590.66
2023-10-29T00:12:04.596Z,100586.25
2023-10-29T00:14:32.485Z,100590.66
2023-10-29T00:17:00.030Z,100590.78
2023-10-29T00:19:27.892Z,100586.25
2023-10-29T00:21:55.290Z,100593.47
2023-10-29T00:24:23.681Z,100595.31
2023-10-29T00:26:51.676Z,100589.09
2023-10-29T00:29:19.205Z,100599.84
2023-10-29T00:31:46.580Z,100604.41
2023-10-29T00:34:13.914Z,100602.72
2023-10-29T00:36:41.243Z,100604.56
2023-10-29T00:39:08.974Z,100602.72
2023-10-29T00:41:36.450Z,100601.03
2023-10-29T00:44:03.981Z,100600.03
2023-10-29T00:46:32.025Z,100596.47
2023-10-29T00:49:00.425Z,100607.38
2023-10-29T00:51:27.854Z,100610.06
2023-10-29T00:53:55.407Z,100606.53
2023-10-29T00:56:23.063Z,100602.00
2023-10-29T00:58:52.510Z,100602.00
2023-10-29T01:01:20.752Z,100607.53
2023-10-29T01:06:16.971Z,100598.63
2023-10-29T01:08:44.962Z,100604.00
2023-10-29T01:11:12.413Z,100612.09
2023-10-29T01:13:40.081Z,100612.09
2023-10-29T01:16:08.045Z,100612.09
2023-10-29T01:18:35.502Z,100588.84
2023-10-29T01:21:03.014Z,100579.91
2023-10-29T01:23:31.569Z,100598.63
2023-10-29T01:25:59.325Z,100601.44
2023-10-29T01:28:27.332Z,100601.44
2023-10-29T01:30:54.833Z,100593.38
2023-10-29T01:33:22.358Z,100609.50
2023-10-29T01:35:49.791Z,100604.13
2023-10-29T01:38:17.083Z,100593.53
2023-10-29T01:40:45.075Z,100587.31
2023-10-29T01:43:12.445Z,100599.75
2023-10-29T01:45:39.858Z,100603.44
2023-10-29T01:48:07.396Z,100608.84
2023-10-29T01:50:37.234Z,100605.13
2023-10-29T01:53:04.596Z,100590.00
2023-10-29T01:55:37.026Z,100606.13
2023-10-29T01:58:04.714Z,100608.00
2023-10-29T02:00:32.275Z,100601.59
2023-10-29T02:03:00.490Z,100588.31
2023-10-29T02:05:27.942Z,100575.81
2023-10-29T02:07:56.935Z,100566.91
2023-10-29T02:10:26.785Z,100566.91
2023-10-29T02:12:54.543Z,100575.81
2023-10-29T02:15:21.799Z,100574.00
2023-10-29T02:17:49.199Z,100576.81
2023-10-29T02:20:16.636Z,100571.44
2023-10-29T02:22:43.958Z,100575.97
2023-10-29T02:25:11.261Z,100574.28
2023-10-29T02:27:38.619Z,100569.75
2023-10-29T02:30:06.690Z,100565.22
2023-10-29T02:32:34.846Z,100568.06
2023-10-29T02:35:02.224Z,100573.44
2023-10-29T02:37:29.777Z,100590.44
2023-10-29T02:39:57.106Z,100591.28
2023-10-29T02:42:24.409Z,100584.22
2023-10-29T02:44:53.746Z,100594.97
2023-10-29T02:47:22.442Z,100599.34
2023-10-29T02:49:49.745Z,100593.97
2023-10-29T02:52:17.038Z,100592.13
2023-10-29T02:54:44.304Z,100599.19
2023-10-29T02:57:11.717Z,100601.91
2023-10-29T02:59:39.295Z,100601.06
2023-10-29T03:02:06.942Z,100598.53
2023-10-29T03:04:34.930Z,100593.97
2023-10-29T03:07:02.232Z,100592.28
2023-10-29T03:09:29.591Z,100592.28
2023-10-29T03:11:56.955Z,100587.75
2023-10-29T03:14:24.410Z,100602.22
2023-10-29T03:16:52.175Z,100605.03
2023-10-29T03:19:19.632Z,100608.56
2023-10-29T03:21:49.045Z,100598.81
2023-10-29T03:24:17.071Z,100602.34
2023-10-29T03:26:45.023Z,100608.72
2023-10-29T03:29:12.395Z,100591.75
2023-10-29T03:31:39.828Z,100588.19
2023-10-29T03:34:09.207Z,100590.06
2023-10-29T03:36:36.616Z,100596.41
2023-10-29T03:39:04.702Z,100605.31
2023-10-29T03:41:32.214Z,100610.72
2023-10-29T03:43:59.533Z,100617.94
2023-10-29T03:46:26.889Z,100597.25
2023-10-29T03:48:54.693Z,100594.56
2023-10-29T03:51:22.134Z,100603.63
2023-10-29T03:53:49.538Z,100598.25
2023-10-29T03:56:16.818Z,100599.25
2023-10-29T03:58:44.157Z,100593.88
2023-10-29T04:01:14.949Z,100603.78
2023-10-29T04:03:45.013Z,100593.03
2023-10-29T04:06:12.726Z,100597.41
2023-10-29T04:08:40.693Z,100597.56
2023-10-29T04:11:08.468Z,100590.34
2023-10-29T04:13:36.216Z,100585.97
2023-10-29T04:16:04.865Z,100592.19
2023-10-29T04:18:33.155Z,100579.69
2023-10-29T04:21:05.116Z,100573.34
2023-10-29T04:23:32.484Z,100577.00
2023-10-29T04:26:00.136Z,100571.63
2023-10-29T04:28:27.491Z,100580.72
2023-10-29T04:30:56.822Z,100578.03
2023-10-29T04:33:24.830Z,100586.09
2023-10-29T04:35:52.329Z,100599.53
2023-10-29T04:38:19.641Z,100596.84
2023-10-29T04:40:46.982Z,100596.84
2023-10-29T04:43:14.256Z,100598.69
2023-10-29T04:45:41.650Z,100606.78
2023-10-29T04:48:09.043Z,100608.63
2023-10-29T04:50:36.360Z,100623.91
2023-10-29T04:53:03.755Z,100649.81
2023-10-29T04:55:31.056Z,100657.91
2023-10-29T04:57:58.443Z,100646.97
2023-10-29T05:00:25.742Z,100641.75
2023-10-29T05:02:53.021Z,100667.81
2023-10-29T05:05:20.408Z,100673.19
2023-10-29T05:07:47.756Z,100635.53
2023-10-29T05:10:15.128Z,100641.91
2023-10-29T05:12:42.552Z,100664.28
2023-10-29T05:15:14.026Z,100671.50
2023-10-29T05:17:41.697Z,100663.44
2023-10-29T05:20:10.445Z,100660.75
2023-10-29T05:22:38.967Z,100662.59
2023-10-29T05:25:09.445Z,100647.41
2023-10-29T05:27:37.932Z,100655.50
2023-10-29T05:30:06.644Z,100659.91
2023-10-29T05:32:34.375Z,100645.56
2023-10-29T05:35:01.842Z,100642.03
2023-10-29T05:37:29.208Z,100658.19
2023-10-29T05:39:56.847Z,100667.09
2023-10-29T05:42:24.190Z,100669.94
2023-10-29T05:44:51.606Z,100667.97
2023-10-29T05:47:19.025Z,100663.56
2023-10-29T05:49:46.344Z,100660.03
2023-10-29T05:52:13.672Z,100668.81
2023-10-29T05:54:41.338Z,100660.03
2023-10-29T05:57:08.784Z,100661.03
2023-10-29T05:59:36.086Z,100671.63
2023-10-29T06:02:03.825Z,100670.78
2023-10-29T06:04:31.336Z,100668.94
2023-10-29T06:06:58.738Z,100644.88
2023-10-29T06:09:26.076Z,100671.81
2023-10-29T06:11:54.166Z,100665.56
2023-10-29T06:14:24.043Z,100686.09
2023-10-29T06:17:05.893Z,100682.56
2023-10-29T06:19:39.996Z,100674.50
2023-10-29T06:22:07.676Z,100667.41
2023-10-29T06:24:35.402Z,100663.72
2023-10-29T06:27:03.846Z,100650.28
2023-10-29T06:29:31.244Z,100649.44
2023-10-29T06:31:58.674Z,100666.41
2023-10-29T06:34:26.025Z,100670.78
2023-10-29T06:36:53.527Z,100674.34
2023-10-29T06:39:20.808Z,100684.25
2023-10-29T06:41:48.113Z,100695.84
2023-10-29T06:44:15.428Z,100688.63
2023-10-29T06:46:42.709Z,100693.16
2023-10-29T06:49:10.118Z,100704.78
2023-10-29T06:51:37.393Z,100697.59
2023-10-29T06:54:05.036Z,100698.53
2023-10-29T06:56:33.236Z,100699.41
2023-10-29T06:59:00.608Z,100696.69
2023-10-29T07:01:28.052Z,100702.97
2023-10-29T07:03:55.573Z,100705.66
2023-10-29T07:06:23.209Z,100713.72
2023-10-29T07:08:50.574Z,100717.25
2023-10-29T07:11:19.677Z,100706.50
2023-10-29T07:13:46.965Z,100714.56
2023-10-29T07:16:17.824Z,100716.41
2023-10-29T07:18:46.137Z,100715.53
2023-10-29T07:21:15.884Z,100727.19
2023-10-29T07:23:43.263Z,100721.78
2023-10-29T07:26:10.745Z,100702.09
2023-10-29T07:28:38.204Z,100698.53
2023-10-29T07:31:05.611Z,100715.53
2023-10-29T07:33:33.315Z,100698.00
2023-10-29T07:36:04.756Z,100711.03
2023-10-29T07:38:32.305Z,100711.91
2023-10-29T07:40:59.773Z,100700.00
2023-10-29T07:43:27.075Z,100714.06
2023-10-29T07:45:55.488Z,100719.00
2023-10-29T07:48:23.807Z,100704.25
2023-10-29T07:50:54.138Z,100710.91
2023-10-29T07:53:21.437Z,100721.81
2023-10-29T07:55:49.213Z,100730.00
2023-10-29T07:58:16.471Z,100724.91
2023-10-29T08:00:43.828Z,100726.06
2023-10-29T08:03:11.234Z,100728.00
2023-10-29T08:05:38.661Z,100729.44
2023-10-29T08:08:07.087Z,100732.28
2023-10-29T08:10:34.337Z,100734.81
2023-10-29T08:13:03.893Z,100748.09
2023-10-29T08:15:31.243Z,100748.81
2023-10-29T08:17:58.582Z,100752.38
2023-10-29T08:20:25.998Z,100745.28
2023-10-29T08:22:53.289Z,100751.53
2023-10-29T08:25:20.677Z,100746.13
2023-10-29T08:27:48.229Z,100755.19
2023-10-29T08:30:15.784Z,100751.63
2023-10-29T08:32:43.185Z,100755.31
2023-10-29T08:35:10.698Z,100751.94
2023-10-29T08:37:38.919Z,100763.66
2023-10-29T08:40:06.929Z,100755.75
2023-10-29T08:42:34.922Z,100765.66
2023-10-29T08:45:02.276Z,100757.59
2023-10-29T08:47:30.732Z,100753.06
2023-10-29T08:49:59.331Z,100766.22
2023-10-29T08:52:26.566Z,100753.47
2023-10-29T08:54:54.331Z,100756.75
2023-10-29T08:57:22.585Z,100760.16
2023-10-29T08:59:50.041Z,100762.41
2023-10-29T09:02:17.333Z,100762.16
2023-10-29T09:04:44.730Z,100766.66
2023-10-29T09:07:12.033Z,100771.06
2023-10-29T09:09:39.587Z,100757.72
2023-10-29T09:12:09.378Z,100753.94
2023-10-29T09:14:36.696Z,100751.25
2023-10-29T09:17:04.024Z,100758.47
2023-10-29T09:19:31.477Z,100761.41
2023-10-29T09:21:58.749Z,100758.72
2023-10-29T09:24:26.165Z,100766.66
2023-10-29T09:26:54.798Z,100751.78
2023-10-29T09:29:22.081Z,100755.47
2023-10-29T09:31:49.374Z,100758.16
2023-10-29T09:34:16.737Z,100768.91
2023-10-29T09:36:44.926Z,100779.81
2023-10-29T09:39:12.348Z,100784.34
2023-10-29T09:41:40.038Z,100779.94
2023-10-29T09:44:10.984Z,100781.94
2023-10-29T09:46:38.543Z,100789.84
2023-10-29T09:49:06.193Z,100788.72
2023-10-29T09:51:34.312Z,100778.66
2023-10-29T09:54:02.352Z,100763.41
2023-10-29T09:56:31.186Z,100778.66
2023-10-29T09:58:58.576Z,100782.94
2023-10-29T10:01:25.992Z,100801.75
2023-10-29T10:03:53.453Z,100801.47
2023-10-29T10:06:21.806Z,100788.88
2023-10-29T10:08:56.873Z,100790.56
2023-10-29T10:11:25.535Z,100796.78
2023-10-29T10:13:52.934Z,100798.66
2023-10-29T10:16:21.466Z,100785.06
2023-10-29T10:18:57.113Z,100777.00
2023-10-29T10:21:42.640Z,100784.19
2023-10-29T10:24:10.221Z,100802.06
2023-10-29T10:26:38.621Z,100805.59
2023-10-29T10:29:08.345Z,100811.69
2023-10-29T10:31:39.228Z,100811.81
2023-10-29T10:34:15.402Z,100827.94
2023-10-29T10:36:44.762Z,100821.72
2023-10-29T10:39:12.808Z,100816.34
2023-10-29T10:41:47.549Z,100820.88
2023-10-29T10:44:16.510Z,100817.34
2023-10-29T10:46:51.534Z,100817.34
2023-10-29T10:49:20.270Z,100823.56
2023-10-29T10:51:49.923Z,100820.88
2023-10-29T10:54:20.740Z,100806.59
2023-10-29T10:56:51.048Z,100806.59
2023-10-29T10:59:18.965Z,100802.19
2023-10-29T11:01:47.143Z,100803.03
2023-10-29T11:04:15.903Z,100805.47
2023-10-29T11:06:44.914Z,100800.94
2023-10-29T11:09:14.774Z,100803.50
2023-10-29T11:11:52.110Z,100817.81
2023-10-29T11:14:20.628Z,100808.88
2023-10-29T11:16:58.247Z,100804.47
2023-10-29T11:19:35.716Z,100804.59
2023-10-29T11:22:30.313Z,100805.47
2023-10-29T11:25:08.934Z,100818.03
2023-10-29T11:27:47.489Z,100830.53
2023-10-29T11:30:24.753Z,100820.72
2023-10-29T11:33:07.969Z,100818.91
2023-10-29T11:35:38.090Z,100825.41
2023-10-29T11:38:28.181Z,100819.16
2023-10-29T11:40:55.604Z,100822.72
2023-10-29T11:43:24.166Z,100821.84
2023-10-29T11:46:02.484Z,100817.63
2023-10-29T11:48:30.690Z,100822.00
2023-10-29T11:51:09.646Z,100825.53
2023-10-29T11:53:40.407Z,100810.41
2023-10-29T11:56:11.472Z,100795.84
2023-10-29T11:58:39.159Z,100790.47
2023-10-29T12:01:07.697Z,100788.47
2023-10-29T12:03:35.465Z,100797.28
2023-10-29T12:06:03.691Z,100798.81
2023-10-29T12:08:32.802Z,100787.94
2023-10-29T12:11:00.960Z,100774.34
2023-10-29T12:13:40.594Z,100768.69
2023-10-29T12:16:08.987Z,100782.13
2023-10-29T12:18:37.385Z,100788.38
2023-10-29T12:21:06.686Z,100781.97
2023-10-29T12:23:36.567Z,100778.28
2023-10-29T12:26:05.939Z,100787.22
2023-10-29T12:28:35.102Z,100800.66
2023-10-29T12:31:02.737Z,100790.91
2023-10-29T12:33:34.663Z,100796.28
2023-10-29T12:36:07.731Z,100793.47
2023-10-29T12:38:39.371Z,100779.28
2023-10-29T12:41:18.042Z,100770.09
2023-10-29T12:43:48.348Z,100774.34
2023-10-29T12:46:17.989Z,100765.28
2023-10-29T12:48:58.336Z,100766.00
2023-10-29T12:51:32.428Z,100771.22
2023-10-29T12:54:16.625Z,100765.84
2023-10-29T12:56:55.263Z,100761.59
2023-10-29T12:59:24.212Z,100758.91
2023-10-29T13:01:53.464Z,100765.28
2023-10-29T13:04:25.542Z,100756.50
2023-10-29T13:06:56.707Z,100765.56
2023-10-29T13:09:26.504Z,100772.63
2023-10-29T13:11:54.394Z,100768.09
2023-10-29T13:14:24.622Z,100767.97
2023-10-29T13:16:56.449Z,100765.13
2023-10-29T13:19:24.518Z,100749.69
2023-10-29T13:21:53.131Z,100762.19
2023-10-29T13:24:21.746Z,100753.09
2023-10-29T13:26:50.492Z,100761.03
2023-10-29T13:29:18.493Z,100751.97
2023-10-29T13:31:47.138Z,100763.44
2023-10-29T13:34:14.874Z,100760.59
2023-10-29T13:36:43.041Z,100754.25
2023-10-29T13:39:15.251Z,100755.09
2023-10-29T13:41:45.583Z,100748.69
2023-10-29T13:44:17.111Z,100740.63
2023-10-29T13:46:44.900Z,100746.84
2023-10-29T13:49:12.188Z,100748.41
2023-10-29T13:51:40.612Z,100742.03
2023-10-29T13:54:09.887Z,100742.88
2023-10-29T13:56:37.193Z,100734.81
2023-10-29T13:59:04.667Z,100726.75
2023-10-29T14:01:31.989Z,100746.41
2023-10-29T14:04:00.213Z,100733.81
2023-10-29T14:06:28.019Z,100740.91
2023-10-29T14:08:55.441Z,100730.16
2023-10-29T14:11:22.917Z,100734.69
2023-10-29T14:13:54.980Z,100736.22
2023-10-29T14:16:34.740Z,100732.69
2023-10-29T14:19:02.092Z,100744.28
2023-10-29T14:21:29.457Z,100737.22
2023-10-29T14:23:57.703Z,100729.16
2023-10-29T14:26:25.028Z,100729.16
2023-10-29T14:28:52.389Z,100734.38
2023-10-29T14:31:19.734Z,100746.13
2023-10-29T14:33:47.006Z,100744.28
2023-10-29T14:36:14.484Z,100739.91
2023-10-29T14:38:41.902Z,100748.84
2023-10-29T14:41:09.277Z,100749.84
2023-10-29T14:43:38.462Z,100746.13
2023-10-29T14:46:05.881Z,100741.75
2023-10-29T14:48:33.238Z,100743.59
2023-10-29T14:51:04.815Z,100748.16
2023-10-29T14:53:32.774Z,100758.91
2023-10-29T14:56:00.220Z,100757.91
2023-10-29T14:58:27.707Z,100761.59
2023-10-29T15:00:55.229Z,100757.06
2023-10-29T15:03:23.224Z,100758.91
2023-10-29T15:05:50.788Z,100758.03
2023-10-29T15:08:18.163Z,100759.75
2023-10-29T15:10:51.656Z,100769.66
2023-10-29T15:13:20.765Z,100763.41
2023-10-29T15:15:48.487Z,100757.19
2023-10-29T15:18:16.410Z,100762.56
2023-10-29T15:20:54.547Z,100769.66
2023-10-29T15:23:25.847Z,100762.56
2023-10-29T15:25:53.105Z,100759.88
2023-10-29T15:28:20.502Z,100761.72
2023-10-29T15:30:48.173Z,100765.25
2023-10-29T15:33:17.834Z,100766.09
2023-10-29T15:35:45.665Z,100765.13
2023-10-29T15:38:14.577Z,100760.44
2023-10-29T15:40:42.068Z,100755.06
2023-10-29T15:43:09.346Z,100750.53
2023-10-29T15:45:39.820Z,100750.53
2023-10-29T15:48:07.343Z,100756.63
2023-10-29T15:50:36.124Z,100739.63
2023-10-29T15:53:03.358Z,100735.09
2023-10-29T15:55:33.775Z,100742.88
2023-10-29T15:58:01.030Z,100736.50
2023-10-29T16:00:28.450Z,100739.03
2023-10-29T16:02:55.980Z,100744.41
2023-10-29T16:05:23.467Z,100740.75
2023-10-29T16:07:50.671Z,100742.44
2023-10-29T16:10:17.964Z,100747.84
2023-10-29T16:12:45.850Z,100768.38
2023-10-29T16:15:13.305Z,100753.91
2023-10-29T16:17:41.165Z,100770.91
2023-10-29T16:20:09.025Z,100779.97
2023-10-29T16:22:36.916Z,100774.59
2023-10-29T16:25:04.930Z,100780.13
2023-10-29T16:27:33.420Z,100786.34
2023-10-29T16:30:01.100Z,100783.81
2023-10-29T16:32:28.732Z,100796.41
2023-10-29T16:34:56.008Z,100802.78
2023-10-29T16:37:23.254Z,100806.47
2023-10-29T16:39:50.572Z,100814.56
2023-10-29T16:42:17.937Z,100814.56
2023-10-29T16:44:45.353Z,100817.41
2023-10-29T16:47:12.694Z,100803.06
2023-10-29T16:49:40.176Z,100801.38
2023-10-29T16:52:10.499Z,100806.75
2023-10-29T16:54:37.827Z,100812.97
2023-10-29T16:57:05.541Z,100806.91
2023-10-29T16:59:32.981Z,100813.97
2023-10-29T17:02:01.049Z,100814.97
2023-10-29T17:04:28.944Z,100811.44
2023-10-29T17:06:56.671Z,100815.97
2023-10-29T17:09:28.497Z,100817.78
2023-10-29T17:11:56.334Z,100817.78
2023-10-29T17:14:24.264Z,100811.56
2023-10-29T17:16:51.767Z,100813.41
2023-10-29T17:19:19.193Z,100822.34
2023-10-29T17:21:46.815Z,100820.63
2023-10-29T17:24:14.143Z,100814.25
2023-10-29T17:26:41.644Z,100825.19
2023-10-29T17:29:09.132Z,100823.47
2023-10-29T17:31:36.542Z,100832.41
2023-10-29T17:34:04.021Z,100821.63
2023-10-29T17:36:31.281Z,100831.56
2023-10-29T17:38:58.677Z,100831.56
2023-10-29T17:41:26.457Z,100839.63
2023-10-29T17:43:53.912Z,100830.56
2023-10-29T17:46:23.900Z,100834.25
2023-10-29T17:48:54.489Z,100836.06
2023-10-29T17:51:21.843Z,100832.53
2023-10-29T17:53:51.209Z,100844.13
2023-10-29T17:56:18.490Z,100850.50
2023-10-29T17:58:47.037Z,100838.91
2023-10-29T18:01:15.571Z,100836.22
2023-10-29T18:03:45.522Z,100842.44
2023-10-29T18:06:16.276Z,100843.44
2023-10-29T18:08:44.966Z,100847.81
2023-10-29T18:11:13.857Z,100846.13
2023-10-29T18:13:43.524Z,100848.81
2023-10-29T18:16:11.206Z,100834.53
2023-10-29T18:18:38.752Z,100834.53
2023-10-29T18:21:06.253Z,100839.91
2023-10-29T18:23:33.787Z,100837.34
2023-10-29T18:26:04.228Z,100841.75
2023-10-29T18:28:32.317Z,100845.28
2023-10-29T18:31:08.115Z,100844.44
2023-10-29T18:33:35.695Z,100843.59
2023-10-29T18:36:12.472Z,100843.59
2023-10-29T18:38:39.866Z,100851.66
2023-10-29T18:41:13.883Z,100846.28
2023-10-29T18:43:41.259Z,100853.63
2023-10-29T18:46:11.046Z,100841.03
2023-10-29T18:48:39.043Z,100851.78
2023-10-29T18:51:06.801Z,100850.78
2023-10-29T18:53:34.327Z,100839.19
2023-10-29T18:56:03.022Z,100832.97
2023-10-29T18:58:30.357Z,100835.66
2023-10-29T19:01:09.442Z,100833.81
2023-10-29T19:03:37.096Z,100832.97
2023-10-29T19:06:09.405Z,100840.19
2023-10-29T19:08:38.153Z,100840.19
2023-10-29T19:11:10.279Z,100839.34
2023-10-29T19:13:37.804Z,100833.97
2023-10-29T19:16:06.625Z,100835.78
2023-10-29T19:18:35.027Z,100838.34
2023-10-29T19:21:02.695Z,100840.34
2023-10-29T19:23:32.808Z,100858.16
2023-10-29T19:26:03.152Z,100856.31
2023-10-29T19:28:30.514Z,100853.78
2023-10-29T19:31:16.851Z,100860.00
2023-10-29T19:33:45.762Z,100856.31
2023-10-29T19:36:18.116Z,100862.69
2023-10-29T19:38:45.557Z,100858.31
2023-10-29T19:41:12.968Z,100861.84
2023-10-29T19:43:40.259Z,100871.78
2023-10-29T19:46:07.741Z,100880.69
2023-10-29T19:48:35.343Z,100869.09
2023-10-29T19:51:07.651Z,100874.47
2023-10-29T19:53:35.924Z,100875.31
2023-10-29T19:56:10.344Z,100863.69
2023-10-29T19:58:37.659Z,100869.09
2023-10-29T20:01:06.997Z,100869.09
2023-10-29T20:03:35.391Z,100863.69
2023-10-29T20:06:13.018Z,100866.41
2023-10-29T20:08:42.469Z,100866.41
2023-10-29T20:11:11.326Z,100870.06
2023-10-29T20:13:39.523Z,100867.34
2023-10-29T20:16:07.798Z,100867.34
2023-10-29T20:18:36.896Z,100865.66
2023-10-29T20:21:05.291Z,100865.50
2023-10-29T20:23:32.800Z,100865.66
2023-10-29T20:26:04.308Z,100857.59
2023-10-29T20:28:33.252Z,100861.97
2023-10-29T20:31:00.610Z,100867.34
2023-10-29T20:33:28.177Z,100859.28
2023-10-29T20:35:55.696Z,100856.59
2023-10-29T20:38:23.536Z,100854.75
2023-10-29T20:40:51.089Z,100857.44
2023-10-29T20:43:18.356Z,100864.66
2023-10-29T20:45:45.846Z,100861.97
2023-10-29T20:48:13.257Z,100863.69
2023-10-29T20:50:40.704Z,100868.22
2023-10-29T20:53:08.061Z,100873.59
2023-10-29T20:55:35.546Z,100862.81
2023-10-29T20:58:03.366Z,100861.97
2023-10-29T21:00:32.631Z,100857.44
2023-10-29T21:03:00.254Z,100849.25
2023-10-29T21:05:28.959Z,100854.63
2023-10-29T21:07:56.299Z,100861.69
2023-10-29T21:10:23.677Z,100850.94
2023-10-29T21:12:52.414Z,100853.63
2023-10-29T21:15:22.184Z,100852.63
2023-10-29T21:17:49.601Z,100846.41
2023-10-29T21:20:16.946Z,100842.72
2023-10-29T21:22:44.366Z,100822.91
2023-10-29T21:25:11.671Z,100836.38
2023-10-29T21:27:39.335Z,100847.13
2023-10-29T21:30:08.226Z,100840.91
2023-10-29T21:32:35.630Z,100845.28
2023-10-29T21:35:03.360Z,100847.97
2023-10-29T21:37:30.718Z,100846.13
2023-10-29T21:39:58.078Z,100852.50
2023-10-29T21:42:25.460Z,100851.66
2023-10-29T21:44:52.879Z,100847.13
2023-10-29T21:47:20.189Z,100842.72
2023-10-29T21:49:49.859Z,100839.19
2023-10-29T21:52:17.633Z,100851.78
2023-10-29T21:54:50.858Z,100858.00
2023-10-29T21:57:18.945Z,100841.03
2023-10-29T21:59:48.780Z,100827.56
2023-10-29T22:02:16.368Z,100823.03
2023-10-29T22:04:43.722Z,100821.19
2023-10-29T22:07:11.055Z,100821.06
2023-10-29T22:09:38.402Z,100820.22
2023-10-29T22:12:05.984Z,100825.59
2023-10-29T22:14:33.288Z,100826.44
2023-10-29T22:17:00.701Z,100818.38
2023-10-29T22:19:27.979Z,100817.53
2023-10-29T22:21:55.359Z,100818.38
2023-10-29T22:24:22.771Z,100814.69
2023-10-29T22:26:51.158Z,100813.00
2023-10-29T22:29:18.467Z,100817.38
2023-10-29T22:31:45.862Z,100816.38
2023-10-29T22:34:13.189Z,100815.53
2023-10-29T22:36:40.523Z,100825.31
2023-10-29T22:39:07.874Z,100828.00
2023-10-29T22:41:35.208Z,100836.94
2023-10-29T22:44:02.452Z,100825.31
2023-10-29T22:46:29.858Z,100831.56
2023-10-29T22:48:57.369Z,100826.19
2023-10-29T22:51:24.796Z,100824.34
2023-10-29T22:53:52.173Z,100820.78
2023-10-29T22:56:19.561Z,100817.22
2023-10-29T22:58:46.939Z,100801.97
2023-10-29T23:01:14.328Z,100802.94
2023-10-29T23:03:41.739Z,100818.09
2023-10-29T23:06:09.336Z,100811.84
2023-10-29T23:08:36.693Z,100801.97
2023-10-29T23:11:04.184Z,100800.13
2023-10-29T23:13:31.514Z,100809.03
2023-10-29T23:15:58.804Z,100807.34
2023-10-29T23:18:28.206Z,100803.66
2023-10-29T23:20:55.813Z,100805.50
2023-10-29T23:23:23.530Z,100814.41
2023-10-29T23:25:50.974Z,100817.94
2023-10-29T23:30:48.784Z,100798.28
2023-10-29T23:33:16.468Z,100781.28
2023-10-29T23:35:44.317Z,100782.13
2023-10-29T23:38:11.618Z,100786.66
2023-10-29T23:40:40.546Z,100788.34
2023-10-29T23:43:09.530Z,100794.56
2023-10-29T23:45:36.984Z,100797.28
2023-10-29T23:48:04.874Z,100798.13
2023-10-29T23:50:32.492Z,100808.03
2023-10-29T23:52:59.778Z,100806.34
2023-10-29T23:55:27.137Z,100791.19
2023-10-29T23:57:54.412Z,100787.50
